createdAt,value
2017-10-30T00:01:23.539Z,86.00
2017-10-30T00:03:53.593Z,85.90
2017-10-30T00:06:22.961Z,85.90
2017-10-30T00:08:53.011Z,85.80
2017-10-30T00:11:22.330Z,85.70
2017-10-30T00:13:51.680Z,85.70
2017-10-30T00:16:21.751Z,85.70
2017-10-30T00:18:51.341Z,85.70
2017-10-30T00:21:20.683Z,85.80
2017-10-30T00:23:50.700Z,85.50
2017-10-30T00:26:20.994Z,85.60
2017-10-30T00:28:50.529Z,85.50
2017-10-30T00:31:21.058Z,85.80
2017-10-30T00:33:51.384Z,86.00
2017-10-30T00:36:21.521Z,86.00
2017-10-30T00:38:57.370Z,85.80
2017-10-30T00:41:30.602Z,86.10
2017-10-30T00:43:59.991Z,86.30
2017-10-30T00:46:29.820Z,86.60
2017-10-30T00:48:59.698Z,86.80
2017-10-30T00:51:42.271Z,86.50
2017-10-30T00:54:15.327Z,86.50
2017-10-30T00:56:45.863Z,86.40
2017-10-30T00:59:18.343Z,86.40
2017-10-30T01:01:48.618Z,86.20
2017-10-30T01:04:18.921Z,86.40
2017-10-30T01:06:48.794Z,86.40
2017-10-30T01:09:20.956Z,86.30
2017-10-30T01:11:58.454Z,86.30
2017-10-30T01:14:34.252Z,86.00
2017-10-30T01:17:04.577Z,85.90
2017-10-30T01:19:33.940Z,85.90
2017-10-30T01:22:03.379Z,86.10
2017-10-30T01:24:33.339Z,86.20
2017-10-30T01:27:02.719Z,86.30
2017-10-30T01:29:32.660Z,87.00
2017-10-30T01:32:01.931Z,87.00
2017-10-30T01:34:31.962Z,87.40
2017-10-30T01:37:01.913Z,87.50
2017-10-30T01:39:32.734Z,87.50
2017-10-30T01:42:01.954Z,87.50
2017-10-30T01:44:31.712Z,87.60
2017-10-30T01:47:01.492Z,87.60
2017-10-30T01:49:31.898Z,87.50
2017-10-30T01:52:02.174Z,87.50
2017-10-30T01:54:32.471Z,86.90
2017-10-30T01:57:02.258Z,86.90
2017-10-30T01:59:31.992Z,86.80
2017-10-30T02:02:01.623Z,86.80
2017-10-30T02:04:32.238Z,86.80
2017-10-30T02:07:01.730Z,86.80
2017-10-30T02:09:31.229Z,86.90
2017-10-30T02:12:00.695Z,86.90
2017-10-30T02:14:30.546Z,86.90
2017-10-30T02:16:59.729Z,86.70
2017-10-30T02:19:29.610Z,87.50
2017-10-30T02:21:59.313Z,86.60
2017-10-30T02:24:29.199Z,86.90
2017-10-30T02:26:59.885Z,86.80
2017-10-30T02:29:29.442Z,86.80
2017-10-30T02:31:58.946Z,86.60
2017-10-30T02:34:28.698Z,86.30
2017-10-30T02:36:58.224Z,86.20
2017-10-30T02:39:27.509Z,86.20
2017-10-30T02:41:57.198Z,86.10
2017-10-30T02:44:27.485Z,86.10
2017-10-30T02:46:57.266Z,86.10
2017-10-30T02:49:27.218Z,86.10
2017-10-30T02:51:56.459Z,86.00
2017-10-30T02:54:25.673Z,86.10
2017-10-30T02:56:54.997Z,85.90
2017-10-30T02:59:24.206Z,85.80
2017-10-30T03:01:53.530Z,85.60
2017-10-30T03:04:22.691Z,85.70
2017-10-30T03:06:52.380Z,85.50
2017-10-30T03:09:21.832Z,85.60
2017-10-30T03:11:51.103Z,85.70
2017-10-30T03:14:20.322Z,85.90
2017-10-30T03:16:50.187Z,86.00
2017-10-30T03:19:22.157Z,86.50
2017-10-30T03:21:52.177Z,86.70
2017-10-30T03:24:21.623Z,86.80
2017-10-30T03:26:50.811Z,87.20
2017-10-30T03:29:20.271Z,87.50
2017-10-30T03:31:49.476Z,87.70
2017-10-30T03:34:18.609Z,87.70
2017-10-30T03:36:48.050Z,87.70
2017-10-30T03:39:18.457Z,87.80
2017-10-30T03:41:47.979Z,88.00
2017-10-30T03:44:18.538Z,87.90
2017-10-30T03:46:54.926Z,87.90
2017-10-30T03:49:27.644Z,87.90
2017-10-30T03:51:58.765Z,87.80
2017-10-30T03:54:28.513Z,87.70
2017-10-30T03:56:59.757Z,87.70
2017-10-30T03:59:41.203Z,87.50
2017-10-30T04:02:11.201Z,87.60
2017-10-30T04:04:43.042Z,87.20
2017-10-30T04:07:17.016Z,87.10
2017-10-30T04:09:48.880Z,87.00
2017-10-30T04:12:21.066Z,86.60
2017-10-30T04:14:52.459Z,86.50
2017-10-30T04:17:22.012Z,86.40
2017-10-30T04:19:51.962Z,86.20
2017-10-30T04:22:29.099Z,86.10
2017-10-30T04:24:59.702Z,85.40
2017-10-30T04:27:29.814Z,85.30
2017-10-30T04:30:12.193Z,85.00
2017-10-30T04:32:47.518Z,85.30
2017-10-30T04:35:17.402Z,85.40
2017-10-30T04:37:46.633Z,85.40
2017-10-30T04:40:17.920Z,85.40
2017-10-30T04:42:47.867Z,85.50
2017-10-30T04:45:20.401Z,85.70
2017-10-30T04:47:49.880Z,85.50
2017-10-30T04:50:19.132Z,86.00
2017-10-30T04:52:48.257Z,86.10
2017-10-30T04:55:18.169Z,86.80
2017-10-30T04:57:51.009Z,87.00
2017-10-30T05:00:20.374Z,87.00
2017-10-30T05:02:51.987Z,87.00
2017-10-30T05:05:21.911Z,87.40
2017-10-30T05:07:51.082Z,87.40
2017-10-30T05:10:20.335Z,87.60
2017-10-30T05:12:49.483Z,88.50
2017-10-30T05:15:20.571Z,87.70
2017-10-30T05:17:50.480Z,87.90
2017-10-30T05:20:20.428Z,87.80
2017-10-30T05:22:49.635Z,87.70
2017-10-30T05:25:18.789Z,87.70
2017-10-30T05:27:50.669Z,88.10
2017-10-30T05:30:19.850Z,88.10
2017-10-30T05:32:49.778Z,89.10
2017-10-30T05:35:18.944Z,88.40
2017-10-30T05:37:48.158Z,88.20
2017-10-30T05:40:17.469Z,88.10
2017-10-30T05:42:47.530Z,88.00
2017-10-30T05:45:16.677Z,88.00
2017-10-30T05:47:46.748Z,88.10
2017-10-30T05:50:16.021Z,88.00
2017-10-30T05:52:45.218Z,87.90
2017-10-30T05:55:14.529Z,87.90
2017-10-30T05:57:43.760Z,87.90
2017-10-30T06:00:12.928Z,87.50
2017-10-30T06:02:42.096Z,87.10
2017-10-30T06:05:11.342Z,87.10
2017-10-30T06:07:40.855Z,87.10
2017-10-30T06:10:12.521Z,86.90
2017-10-30T06:12:41.890Z,87.10
2017-10-30T06:15:11.537Z,87.00
2017-10-30T06:17:40.764Z,87.10
2017-10-30T06:20:10.089Z,87.20
2017-10-30T06:22:40.826Z,87.50
2017-10-30T06:25:10.165Z,86.70
2017-10-30T06:27:39.460Z,86.90
2017-10-30T06:30:10.182Z,86.70
2017-10-30T06:32:39.478Z,86.70
2017-10-30T06:35:09.465Z,86.30
2017-10-30T06:37:38.821Z,86.30
2017-10-30T06:40:09.985Z,86.10
2017-10-30T06:42:43.655Z,86.50
2017-10-30T06:45:13.092Z,86.60
2017-10-30T06:47:42.525Z,86.50
2017-10-30T06:50:12.251Z,86.80
2017-10-30T06:52:42.431Z,86.80
2017-10-30T06:55:12.303Z,86.50
2017-10-30T06:57:42.414Z,86.70
2017-10-30T07:00:18.008Z,86.80
2017-10-30T07:02:57.466Z,86.60
2017-10-30T07:05:26.753Z,86.60
2017-10-30T07:07:58.401Z,86.60
2017-10-30T07:10:29.829Z,86.60
2017-10-30T07:12:59.118Z,86.10
2017-10-30T07:15:30.094Z,86.30
2017-10-30T07:18:00.848Z,86.30
2017-10-30T07:20:30.118Z,86.30
2017-10-30T07:23:07.220Z,85.90
2017-10-30T07:25:37.801Z,85.30
2017-10-30T07:28:07.157Z,85.20
2017-10-30T07:30:36.408Z,85.40
2017-10-30T07:33:07.163Z,85.50
2017-10-30T07:35:37.463Z,85.10
2017-10-30T07:38:06.895Z,85.10
2017-10-30T07:40:37.238Z,84.70
2017-10-30T07:43:06.944Z,84.70
2017-10-30T07:45:37.842Z,83.10
2017-10-30T07:48:10.629Z,83.10
2017-10-30T07:50:43.729Z,82.30
2017-10-30T07:53:13.397Z,82.10
2017-10-30T07:55:42.972Z,81.60
2017-10-30T07:58:13.049Z,81.70
2017-10-30T08:00:42.436Z,81.80
2017-10-30T08:03:11.740Z,82.20
2017-10-30T08:05:41.285Z,82.70
2017-10-30T08:08:11.469Z,82.60
2017-10-30T08:10:40.711Z,82.70
2017-10-30T08:13:11.489Z,82.20
2017-10-30T08:15:44.093Z,82.10
2017-10-30T08:18:13.648Z,81.50
2017-10-30T08:20:43.638Z,81.00
2017-10-30T08:23:13.852Z,79.90
2017-10-30T08:25:43.525Z,79.80
2017-10-30T08:28:13.534Z,80.00
2017-10-30T08:30:42.837Z,80.20
2017-10-30T08:33:12.176Z,79.70
2017-10-30T08:35:41.555Z,80.00
2017-10-30T08:38:11.017Z,80.10
2017-10-30T08:40:40.368Z,79.60
2017-10-30T08:43:09.748Z,79.60
2017-10-30T08:45:40.864Z,79.70
2017-10-30T08:48:10.133Z,78.80
2017-10-30T08:50:42.137Z,78.30
2017-10-30T08:53:11.631Z,78.50
2017-10-30T08:55:41.044Z,78.10
2017-10-30T08:58:10.459Z,77.20
2017-10-30T09:00:40.282Z,77.40
2017-10-30T09:03:09.819Z,78.00
2017-10-30T09:05:39.290Z,77.50
2017-10-30T09:08:08.923Z,77.00
2017-10-30T09:10:38.577Z,77.40
2017-10-30T09:13:09.548Z,77.10
2017-10-30T09:15:38.982Z,77.00
2017-10-30T09:18:09.321Z,76.60
2017-10-30T09:20:39.788Z,76.10
2017-10-30T09:23:09.088Z,76.10
2017-10-30T09:25:38.458Z,76.20
2017-10-30T09:28:09.066Z,71.50
2017-10-30T09:30:38.681Z,71.50
2017-10-30T09:33:08.505Z,71.10
2017-10-30T09:35:38.645Z,70.50
2017-10-30T09:38:08.000Z,70.40
2017-10-30T09:40:37.592Z,70.70
2017-10-30T09:43:07.015Z,70.50
2017-10-30T09:45:36.395Z,70.70
2017-10-30T09:48:06.258Z,70.50
2017-10-30T09:50:36.660Z,70.70
2017-10-30T09:53:06.129Z,70.60
2017-10-30T09:55:35.770Z,69.50
2017-10-30T09:58:06.529Z,70.00
2017-10-30T10:00:36.685Z,70.40
2017-10-30T10:03:08.338Z,70.40
2017-10-30T10:05:37.929Z,70.80
2017-10-30T10:08:07.730Z,70.30
2017-10-30T10:10:37.393Z,69.80
2017-10-30T10:13:08.941Z,69.60
2017-10-30T10:15:38.617Z,69.00
2017-10-30T10:18:08.263Z,67.90
2017-10-30T10:20:37.776Z,67.50
2017-10-30T10:23:07.397Z,66.50
2017-10-30T10:25:37.046Z,65.80
2017-10-30T10:28:06.885Z,64.30
2017-10-30T10:30:44.089Z,63.80
2017-10-30T10:33:27.760Z,63.90
2017-10-30T10:36:04.209Z,62.40
2017-10-30T10:38:33.899Z,62.50
2017-10-30T10:41:03.550Z,60.80
2017-10-30T10:43:33.012Z,60.30
2017-10-30T10:46:03.358Z,59.30
2017-10-30T10:48:33.798Z,58.30
2017-10-30T10:51:03.958Z,58.40
2017-10-30T10:53:33.542Z,58.40
2017-10-30T10:56:02.913Z,59.20
2017-10-30T10:58:32.503Z,60.00
2017-10-30T11:01:07.453Z,59.90
2017-10-30T11:03:43.532Z,58.90
2017-10-30T11:06:14.459Z,59.10
2017-10-30T11:08:45.126Z,59.90
2017-10-30T11:11:21.680Z,59.90
2017-10-30T11:13:51.392Z,60.70
2017-10-30T11:16:23.196Z,61.50
2017-10-30T11:18:52.923Z,62.00
2017-10-30T11:21:23.148Z,61.60
2017-10-30T12:00:53.701Z,61.20
2017-10-30T12:03:23.122Z,61.10
2017-10-30T12:05:53.556Z,61.80
2017-10-30T12:08:24.219Z,61.70
2017-10-30T12:10:54.467Z,62.60
2017-10-30T12:13:25.784Z,62.90
2017-10-30T12:15:55.687Z,63.20
2017-10-30T12:18:33.050Z,62.20
2017-10-30T12:21:09.067Z,62.20
2017-10-30T12:23:41.383Z,61.50
2017-10-30T12:26:11.161Z,57.30
2017-10-30T12:28:40.383Z,51.60
2017-10-30T12:31:10.330Z,49.50
2017-10-30T12:33:40.631Z,48.00
2017-10-30T12:36:12.889Z,48.70
2017-10-30T12:38:43.123Z,51.20
2017-10-30T12:41:12.644Z,53.80
2017-10-30T12:43:42.033Z,55.90
2017-10-30T12:46:11.570Z,56.60
2017-10-30T12:48:41.764Z,55.10
2017-10-30T12:51:11.110Z,55.00
2017-10-30T12:53:41.128Z,50.60
2017-10-30T12:56:10.878Z,45.20
2017-10-30T12:58:40.282Z,42.20
2017-10-30T13:01:09.757Z,41.30
2017-10-30T13:03:39.191Z,41.60
2017-10-30T13:06:08.979Z,41.50
2017-10-30T13:08:40.481Z,40.00
2017-10-30T13:12:17.742Z,38.30
2017-10-30T13:14:47.416Z,37.60
2017-10-30T13:17:16.727Z,40.30
2017-10-30T13:19:46.409Z,40.40
2017-10-30T13:22:16.414Z,39.50
2017-10-30T13:24:45.815Z,38.10
2017-10-30T13:27:16.264Z,40.70
2017-10-30T13:29:47.448Z,41.00
2017-10-30T13:32:17.984Z,40.40
2017-10-30T13:34:47.745Z,40.30
2017-10-30T13:37:17.726Z,39.90
2017-10-30T13:39:47.659Z,39.00
2017-10-30T13:42:19.618Z,44.50
2017-10-30T13:44:49.232Z,44.50
2017-10-30T13:47:18.881Z,44.00
2017-10-30T13:49:48.311Z,43.80
2017-10-30T13:52:18.056Z,42.80
2017-10-30T13:54:49.730Z,42.40
2017-10-30T13:57:20.892Z,41.50
2017-10-30T13:59:50.708Z,41.20
2017-10-30T14:02:22.317Z,42.20
2017-10-30T14:04:52.432Z,42.30
2017-10-30T14:07:22.607Z,44.00
2017-10-30T14:09:51.911Z,45.50
2017-10-30T14:12:22.026Z,47.50
2017-10-30T14:14:51.781Z,49.30
2017-10-30T14:17:21.935Z,51.10
2017-10-30T14:19:52.597Z,51.10
2017-10-30T14:22:22.051Z,50.70
2017-10-30T14:24:52.165Z,53.00
2017-10-30T14:27:22.127Z,53.00
2017-10-30T14:29:52.054Z,53.60
2017-10-30T14:32:23.866Z,54.00
2017-10-30T14:35:01.832Z,56.00
2017-10-30T14:37:40.934Z,56.20
2017-10-30T14:40:14.039Z,56.30
2017-10-30T14:42:46.465Z,56.30
2017-10-30T14:45:19.828Z,56.50
2017-10-30T14:47:49.581Z,56.70
2017-10-30T14:50:21.498Z,57.60
2017-10-30T14:52:52.703Z,57.50
2017-10-30T14:55:25.957Z,58.10
2017-10-30T14:57:56.644Z,57.00
2017-10-30T15:00:26.755Z,57.00
2017-10-30T15:03:00.630Z,56.80
2017-10-30T15:05:38.700Z,57.50
2017-10-30T15:08:08.891Z,57.50
2017-10-30T15:10:39.888Z,58.50
2017-10-30T15:13:15.270Z,58.50
2017-10-30T15:15:44.947Z,59.10
2017-10-30T15:18:15.357Z,59.70
2017-10-30T15:20:45.782Z,59.70
2017-10-30T15:23:15.287Z,60.30
2017-10-30T15:25:45.253Z,61.00
2017-10-30T15:28:14.712Z,61.30
2017-10-30T15:30:44.175Z,61.60
2017-10-30T15:33:13.582Z,61.70
2017-10-30T15:35:43.324Z,62.00
2017-10-30T15:38:13.051Z,62.30
2017-10-30T15:40:44.140Z,62.80
2017-10-30T15:43:15.975Z,63.20
2017-10-30T15:46:00.562Z,62.90
2017-10-30T15:48:30.321Z,62.80
2017-10-30T15:51:08.161Z,63.20
2017-10-30T15:53:37.807Z,63.10
2017-10-30T15:56:07.892Z,63.70
2017-10-30T15:58:37.499Z,63.80
2017-10-30T16:01:14.570Z,64.00
2017-10-30T16:03:44.085Z,64.10
2017-10-30T16:06:19.529Z,64.30
2017-10-30T16:09:02.022Z,64.20
2017-10-30T16:11:38.444Z,64.00
2017-10-30T16:14:09.215Z,64.30
2017-10-30T16:16:40.325Z,64.20
2017-10-30T16:19:11.246Z,64.20
2017-10-30T16:21:42.680Z,64.10
2017-10-30T16:24:17.070Z,64.10
2017-10-30T16:26:49.657Z,64.40
2017-10-30T16:29:24.234Z,64.50
2017-10-30T16:31:55.959Z,64.50
2017-10-30T16:34:36.612Z,65.00
2017-10-30T16:37:08.990Z,65.40
2017-10-30T16:39:40.930Z,65.70
2017-10-30T16:42:14.804Z,65.80
2017-10-30T16:44:44.550Z,66.80
2017-10-30T16:47:15.352Z,66.20
2017-10-30T16:49:51.103Z,66.30
2017-10-30T16:52:20.673Z,66.20
2017-10-30T16:54:50.176Z,66.80
2017-10-30T16:57:26.610Z,66.80
2017-10-30T17:00:07.248Z,67.10
2017-10-30T17:02:37.680Z,67.20
2017-10-30T17:05:07.107Z,67.40
2017-10-30T17:07:43.327Z,67.80
2017-10-30T17:10:13.836Z,67.70
2017-10-30T17:12:45.793Z,68.20
2017-10-30T17:15:15.380Z,69.40
2017-10-30T17:17:49.244Z,69.60
2017-10-30T17:20:18.939Z,69.80
2017-10-30T17:22:49.326Z,69.70
2017-10-30T17:25:18.809Z,69.70
2017-10-30T17:27:58.960Z,69.90
2017-10-30T17:30:44.228Z,70.00
2017-10-30T17:33:14.350Z,69.90
2017-10-30T17:35:45.672Z,70.00
2017-10-30T17:38:20.185Z,70.10
2017-10-30T17:40:52.378Z,70.50
2017-10-30T17:43:24.788Z,70.10
2017-10-30T17:45:57.266Z,70.70
2017-10-30T17:48:26.964Z,70.90
2017-10-30T17:50:57.315Z,70.60
2017-10-30T17:53:27.168Z,70.50
2017-10-30T17:55:59.545Z,70.90
2017-10-30T17:58:31.866Z,70.90
2017-10-30T18:01:01.782Z,70.60
2017-10-30T18:03:33.234Z,70.80
2017-10-30T18:06:02.806Z,70.80
2017-10-30T18:08:32.341Z,70.40
2017-10-30T18:11:02.692Z,70.80
2017-10-30T18:13:33.280Z,71.10
2017-10-30T18:16:03.993Z,71.10
2017-10-30T18:18:41.853Z,71.00
2017-10-30T18:21:13.068Z,71.30
2017-10-30T18:23:43.819Z,71.30
2017-10-30T18:26:13.169Z,70.90
2017-10-30T18:28:42.950Z,71.10
2017-10-30T18:31:19.796Z,71.20
2017-10-30T18:33:52.255Z,70.80
2017-10-30T18:36:26.015Z,70.80
2017-10-30T18:38:57.221Z,71.00
2017-10-30T18:41:27.579Z,71.20
2017-10-30T18:44:01.383Z,71.20
2017-10-30T18:46:30.949Z,71.40
2017-10-30T18:49:01.459Z,71.70
2017-10-30T18:51:32.253Z,71.90
2017-10-30T18:54:01.969Z,71.90
2017-10-30T18:56:31.473Z,72.60
2017-10-30T18:59:01.411Z,72.60
2017-10-30T19:01:32.182Z,72.50
2017-10-30T19:04:02.599Z,73.00
2017-10-30T19:06:32.937Z,73.20
2017-10-30T19:09:03.924Z,73.30
2017-10-30T19:11:33.526Z,73.30
2017-10-30T19:14:03.565Z,73.40
2017-10-30T19:16:33.569Z,73.50
2017-10-30T19:19:04.262Z,73.60
2017-10-30T19:21:35.264Z,73.70
2017-10-30T19:24:05.179Z,74.10
2017-10-30T19:26:35.020Z,73.90
2017-10-30T19:29:05.662Z,74.50
2017-10-30T19:31:35.404Z,74.50
2017-10-30T19:34:05.171Z,74.60
2017-10-30T19:36:35.989Z,74.40
2017-10-30T19:39:13.153Z,74.20
2017-10-30T19:41:42.976Z,73.80
2017-10-30T19:44:13.786Z,74.40
2017-10-30T19:46:43.460Z,74.70
2017-10-30T19:49:14.119Z,75.00
2017-10-30T19:51:44.656Z,75.00
2017-10-30T19:54:15.891Z,74.80
2017-10-30T19:56:48.459Z,74.60
2017-10-30T19:59:18.604Z,74.80
2017-10-30T20:01:48.184Z,74.80
2017-10-30T20:04:18.742Z,74.80
2017-10-30T20:08:56.399Z,75.00
2017-10-30T20:12:34.562Z,74.50
2017-10-30T20:15:04.544Z,74.00
2017-10-30T20:17:42.577Z,73.70
2017-10-30T20:20:13.633Z,74.30
2017-10-30T20:22:43.503Z,74.20
2017-10-30T20:25:13.299Z,74.00
2017-10-30T20:27:43.856Z,74.40
2017-10-30T20:30:18.016Z,74.70
2017-10-30T20:33:05.843Z,75.90
2017-10-30T20:35:46.122Z,75.80
2017-10-30T20:38:17.178Z,76.40
2017-10-30T20:40:51.494Z,76.70
2017-10-30T20:43:23.458Z,76.70
2017-10-30T20:45:54.870Z,77.40
2017-10-30T20:48:33.942Z,76.80
2017-10-30T20:51:07.391Z,77.20
2017-10-30T20:53:43.665Z,77.10
2017-10-30T20:56:14.868Z,77.40
2017-10-30T20:58:46.480Z,77.80
2017-10-30T21:01:18.815Z,77.70
2017-10-30T21:03:53.233Z,77.70
2017-10-30T21:06:23.045Z,78.00
2017-10-30T21:08:56.628Z,78.10
2017-10-30T21:11:30.069Z,78.50
2017-10-30T21:14:02.986Z,78.50
2017-10-30T21:16:34.576Z,78.90
2017-10-30T21:19:04.923Z,78.80
2017-10-30T21:21:38.970Z,78.90
2017-10-30T21:24:08.699Z,79.20
2017-10-30T21:26:39.250Z,79.20
2017-10-30T21:29:09.915Z,79.10
2017-10-30T21:31:40.882Z,79.20
2017-10-30T21:34:11.283Z,79.50
2017-10-30T21:36:42.586Z,79.40
2017-10-30T21:39:13.020Z,79.50
2017-10-30T21:41:42.586Z,79.50
2017-10-30T21:44:14.140Z,79.80
2017-10-30T21:46:44.961Z,79.50
2017-10-30T21:49:15.018Z,80.30
2017-10-30T21:51:45.426Z,80.50
2017-10-30T21:54:16.785Z,80.40
2017-10-30T21:56:46.963Z,79.70
2017-10-30T21:59:18.040Z,79.70
2017-10-30T22:01:48.907Z,79.30
2017-10-30T22:04:20.885Z,79.30
2017-10-30T22:06:53.505Z,79.60
2017-10-30T22:09:23.340Z,79.70
2017-10-30T22:11:55.786Z,80.10
2017-10-30T22:14:26.579Z,79.80
2017-10-30T22:16:57.782Z,79.80
2017-10-30T22:19:28.590Z,79.90
2017-10-30T22:22:03.418Z,79.90
2017-10-30T22:24:36.569Z,79.60
2017-10-30T22:27:06.539Z,79.60
2017-10-30T22:29:39.391Z,80.20
2017-10-30T22:32:09.413Z,80.40
2017-10-30T22:34:39.195Z,80.80
2017-10-30T22:37:09.175Z,80.60
2017-10-30T22:39:39.946Z,80.60
2017-10-30T22:42:11.878Z,80.40
2017-10-30T22:44:50.546Z,79.90
2017-10-30T22:47:28.239Z,79.70
2017-10-30T22:50:07.267Z,79.50
2017-10-30T22:52:43.388Z,78.90
2017-10-30T22:55:14.971Z,78.90
2017-10-30T22:57:54.968Z,79.00
2017-10-30T23:00:34.310Z,79.40
2017-10-30T23:03:16.517Z,80.10
2017-10-30T23:05:47.311Z,80.90
2017-10-30T23:08:17.898Z,81.10
2017-10-30T23:10:53.524Z,81.00
2017-10-30T23:13:24.403Z,81.40
2017-10-30T23:15:55.721Z,81.70
2017-10-30T23:18:25.986Z,81.60
2017-10-30T23:20:55.444Z,82.10
2017-10-30T23:23:24.994Z,82.10
2017-10-30T23:25:56.461Z,82.30
2017-10-30T23:28:28.558Z,82.10
2017-10-30T23:30:58.490Z,81.80
2017-10-30T23:33:31.208Z,81.50
2017-10-30T23:36:00.969Z,81.50
2017-10-30T23:38:31.899Z,81.90
2017-10-30T23:41:03.238Z,82.30
2017-10-30T23:43:34.426Z,82.30
2017-10-30T23:46:04.679Z,82.50
2017-10-30T23:48:35.217Z,82.50
2017-10-30T23:51:05.253Z,82.40
2017-10-30T23:53:36.875Z,81.60
2017-10-30T23:56:13.017Z,81.60
2017-10-30T23:58:43.120Z,81.60
